AXB weather

Maxson Airfield
Alexandria Bay, New York, United States

Public forecast

Using degrees Fahrenheit for public forecast. Weather courtesy of forecast.io.

Closest aviation weather report (METAR) to Maxson Airfield

Closest report is Wheeler Sack Army Air Field, 17.3 nm (31.9 km) SSE. Retrieved 2019/10/14 18:56 UTC (60 minutes ago):

KGTB 141856Z AUTO 00000KT 10SM OVC030 11/03 A2994 RMK AO2 SLP141 T01080033

Closest aviation forecast (TAF) to Maxson Airfield

Closest forecast is Wheeler Sack Army Air Field, 17.3 nm (31.9 km) SSE. Retrieved 2019/10/14 17:06 UTC (3 hours ago):

TAF KGTB 141700Z 1417/1523 VRB06KT 8000 -RA BKN030 QNH2991INS BECMG 1419/1420 25012G18KT 9999 NSW BKN030 QNH2993INS BECMG 1420/1421 25009KT 9999 BKN030 QNH2996INS BECMG 1512/1513 VRB06KT 9999 BKN030 QNH3010INS BECMG 1515/1516 22010G15KT 9999 OVC020 QNH3010INS BECMG 1520/1521 22010G15KT 9999 SCT030 QNH3003INS BECMG 1521/1522 VRB06KT 9999 FEW030 QNH3003INS TX12/1418Z TN03/1511Z